Baykal'sk, Russia
Current Conditions -  °F | °C
As of 11:00 PM on Monday 24 Nov 2014 (Local Time) from UIII Reporting Station
Clear Clear  
Wind Chill: 20°   Ceiling: Unl
Heat Index: 30°   Visibility: 6mi
Dew Point: 19°   Wind: 13mph
Humidity: 64%   Direction: 170°S
Pressure: 29.41"   Gusts: NA
Location:  51.55°N, 104.4°E
Report Text: UIII 241500Z 17006MPS CAVOK M01/M07 Q0996 NOSIG RMK QFE705/094012CLRD60
Loading
Personal Weather Stations






























Interactive Weather Map New forecast layout! Learn more

10-Day Weather Forecast

Advertisements
Track Severe Weather on mobile